Time;durP1;ratioP1;P1;durP2;ratioP2;P2;SDS_P1;SDS_P2;PMS_P1;PMS_P2;Temp;Humidity;BMP_temperature;BMP_pressure;BME280_temperature;BME280_humidity;BME280_pressure;Samples;Min_cycle;Max_cycle;Signal;HPM_P1;HPM_P2
2022/06/23 00:01:23;;;;;;;7.60;4.93;;;;;;;13.20;100.00;155840.16;4930872;29;20059;-76
2022/06/23 00:03:54;;;;;;;8.13;4.82;;;;;;;13.13;100.00;155822.16;4917294;29;20035;-76
2022/06/23 00:06:47;;;;;;;7.60;4.43;;;;;;;13.11;100.00;155815.69;4924809;29;20078;-78
2022/06/23 00:09:32;;;;;;;7.57;5.75;;;;;;;13.04;100.00;155799.00;4915799;29;20048;-76
2022/06/23 00:11:58;;;;;;;7.72;5.28;;;;;;;13.04;100.00;155799.00;4917368;29;20079;-77
2022/06/23 00:14:25;;;;;;;10.02;5.57;;;;;;;13.04;100.00;155800.28;4924035;29;20039;-77
2022/06/23 00:16:51;;;;;;;9.15;5.25;;;;;;;13.00;100.00;155788.75;4914028;29;20095;-76
2022/06/23 00:19:17;;;;;;;7.93;5.55;;;;;;;12.90;100.00;155764.28;4934617;29;20055;-78
2022/06/23 00:21:52;;;;;;;9.60;5.47;;;;;;;12.93;100.00;155770.75;4915448;29;20036;-77
2022/06/23 00:24:25;;;;;;;6.50;4.80;;;;;;;12.94;100.00;155774.63;4897490;29;20118;-77
2022/06/23 00:26:52;;;;;;;8.10;5.45;;;;;;;12.93;100.00;155770.75;4929236;29;20039;-76
2022/06/23 00:29:22;;;;;;;11.52;5.57;;;;;;;12.89;100.00;155761.75;4929092;29;20043;-75
2022/06/23 00:31:58;;;;;;;8.77;5.00;;;;;;;12.91;100.00;155766.88;4928351;29;20094;-77
2022/06/23 00:34:52;;;;;;;7.72;5.13;;;;;;;12.85;100.00;155752.75;4945663;29;20565;-76
2022/06/23 00:37:19;;;;;;;7.38;5.10;;;;;;;12.79;100.00;155737.34;4941858;29;20051;-74
2022/06/23 00:39:55;;;;;;;8.73;5.25;;;;;;;12.80;100.00;155739.88;4904703;29;20481;-77
2022/06/23 00:42:32;;;;;;;10.48;5.70;;;;;;;12.75;100.00;155727.06;4916360;29;20047;-74
2022/06/23 00:45:09;;;;;;;9.50;5.18;;;;;;;12.71;100.00;155715.50;4936560;29;20086;-76
2022/06/23 00:47:57;;;;;;;9.20;5.50;;;;;;;12.70;100.00;155712.94;4932941;29;20043;-78
2022/06/23 00:50:52;;;;;;;10.13;5.68;;;;;;;12.70;100.00;155712.94;4916186;29;20501;-76
2022/06/23 00:53:27;;;;;;;7.05;5.70;;;;;;;12.71;100.00;155715.50;4937903;29;20067;-77
2022/06/23 00:56:11;;;;;;;8.73;5.72;;;;;;;12.70;100.00;155712.94;4927603;29;20054;-75
2022/06/23 00:58:58;;;;;;;7.60;5.30;;;;;;;12.68;100.00;155707.75;4899163;29;20040;-76
2022/06/23 01:01:45;;;;;;;7.50;6.28;;;;;;;12.70;100.00;155714.22;4919174;29;20047;-77
2022/06/23 01:04:22;;;;;;;6.45;5.75;;;;;;;12.68;100.00;155707.75;4924031;29;20043;-75
2022/06/23 01:06:55;;;;;;;9.75;6.18;;;;;;;12.59;100.00;155685.97;4934596;29;20040;-75
2022/06/23 01:09:49;;;;;;;8.00;6.25;;;;;;;12.57;100.00;155680.81;4910316;29;20696;-78
2022/06/23 01:12:39;;;;;;;8.93;5.80;;;;;;;12.50;100.00;155662.81;4911589;29;20050;-76
2022/06/23 01:15:16;;;;;;;9.52;6.18;;;;;;;12.44;100.00;155649.97;4942761;29;20039;-77
2022/06/23 01:17:49;;;;;;;13.02;6.65;;;;;;;12.43;100.00;155647.44;4946185;29;20028;-76
2022/06/23 01:20:45;;;;;;;9.90;7.40;;;;;;;12.40;100.00;155638.44;4944817;29;20044;-77
2022/06/23 01:23:34;;;;;;;10.85;7.18;;;;;;;12.40;100.00;155638.44;4936942;29;20040;-77
2022/06/23 01:26:21;;;;;;;13.57;7.22;;;;;;;12.38;100.00;155633.28;4906701;29;20040;-77
2022/06/23 01:28:50;;;;;;;9.20;6.65;;;;;;;12.27;100.00;155607.59;4944106;29;20036;-77
2022/06/23 01:31:21;;;;;;;13.25;6.93;;;;;;;12.29;100.00;155610.19;4901560;29;20146;-76
2022/06/23 01:33:59;;;;;;;11.98;7.00;;;;;;;12.27;100.00;155607.59;4917907;29;20093;-76
2022/06/23 01:36:47;;;;;;;8.32;6.35;;;;;;;12.25;100.00;155602.44;4944179;29;20046;-76
2022/06/23 01:39:41;;;;;;;9.48;6.43;;;;;;;12.32;100.00;155617.84;4907418;29;20130;-78
2022/06/23 01:42:24;;;;;;;14.18;6.65;;;;;;;12.26;100.00;155603.72;4933437;29;20055;-75
2022/06/23 01:45:18;;;;;;;15.85;7.25;;;;;;;12.22;100.00;155594.78;4941424;29;20665;-76
2022/06/23 01:47:54;;;;;;;10.55;6.85;;;;;;;12.17;100.00;155581.91;4902446;29;20050;-76
2022/06/23 01:50:35;;;;;;;10.02;6.97;;;;;;;12.13;100.00;155571.66;4929098;29;20043;-76
2022/06/23 01:53:27;;;;;;;11.32;7.40;;;;;;;12.14;100.00;155572.94;4925555;29;20048;-76
2022/06/23 01:56:06;;;;;;;14.70;8.38;;;;;;;12.14;100.00;155572.94;4918414;29;20051;-77
2022/06/23 01:59:12;;;;;;;11.55;8.02;;;;;;;12.15;100.00;155576.78;4904469;29;20526;-76
2022/06/23 02:01:52;;;;;;;10.93;8.13;;;;;;;12.19;100.00;155587.06;4924194;29;20056;-76
2022/06/23 02:04:40;;;;;;;14.55;8.60;;;;;;;12.19;100.00;155585.78;4902738;29;20050;-78
2022/06/23 02:07:13;;;;;;;12.00;7.85;;;;;;;12.10;100.00;155562.66;4933971;29;20043;-74
2022/06/23 02:09:54;;;;;;;13.57;8.20;;;;;;;12.13;100.00;155571.66;4925623;29;20134;-78
2022/06/23 02:12:24;;;;;;;15.80;8.88;;;;;;;12.12;100.00;155569.06;4929400;29;20039;-76
2022/06/23 02:15:04;;;;;;;17.88;8.80;;;;;;;12.06;100.00;155553.66;4911831;29;20058;-75
2022/06/23 02:17:42;;;;;;;12.63;8.80;;;;;;;11.99;100.00;155536.94;4924743;29;20043;-76
2022/06/23 02:20:27;;;;;;;13.00;8.68;;;;;;;11.93;100.00;155521.56;4934901;29;20035;-78
2022/06/23 02:23:13;;;;;;;13.90;9.05;;;;;;;11.89;100.00;155511.25;4933851;29;20031;-78
2022/06/23 02:25:48;;;;;;;15.20;8.88;;;;;;;11.85;100.00;155502.25;4920958;29;20040;-76
2022/06/23 02:28:25;;;;;;;13.60;9.07;;;;;;;11.82;100.00;155493.25;4918801;29;20135;-77
2022/06/23 02:30:55;;;;;;;13.98;8.73;;;;;;;11.74;100.00;155472.72;4916943;29;20046;-79
2022/06/23 02:33:31;;;;;;;14.80;9.23;;;;;;;11.74;100.00;155474.00;4915405;29;20126;-76
2022/06/23 02:36:37;;;;;;;14.15;9.13;;;;;;;11.73;100.00;155470.16;4943136;29;20039;-75
2022/06/23 02:39:23;;;;;;;12.30;9.43;;;;;;;11.67;100.00;155457.28;4835333;29;20056;-76
2022/06/23 02:42:00;;;;;;;12.40;8.52;;;;;;;11.61;100.00;155441.91;4909724;29;20074;-76
2022/06/23 02:44:33;;;;;;;10.65;8.52;;;;;;;11.67;100.00;155457.28;4924140;29;20097;-76
2022/06/23 02:47:07;;;;;;;;;;;;;;;11.64;100.00;155448.31;4922054;29;20071;-77
2022/06/23 02:49:52;;;;;;;14.82;8.65;;;;;;;11.62;100.00;155444.50;4947954;29;20448;-74
2022/06/23 02:52:29;;;;;;;15.90;9.00;;;;;;;11.58;100.00;155434.19;4943695;29;20058;-77
2022/06/23 02:55:01;;;;;;;15.40;8.80;;;;;;;11.57;100.00;155430.38;4907669;29;20067;-77
2022/06/23 02:57:48;;;;;;;14.75;8.70;;;;;;;11.56;100.00;155429.06;4936538;29;20043;-77
2022/06/23 03:00:25;;;;;;;13.18;9.88;;;;;;;11.55;100.00;155426.50;4937706;29;20034;-77
2022/06/23 03:02:59;;;;;;;15.68;10.45;;;;;;;11.60;100.00;155439.34;4924337;29;20055;-77
2022/06/23 03:05:38;;;;;;;12.18;9.55;;;;;;;11.59;100.00;155436.78;4939749;28;20048;-75
2022/06/23 03:08:18;;;;;;;16.90;9.85;;;;;;;11.58;100.00;155434.19;4905634;29;20055;-78
2022/06/23 03:10:53;;;;;;;12.73;8.95;;;;;;;11.57;100.00;155430.38;4917547;29;20257;-74
2022/06/23 03:13:48;;;;;;;12.35;9.23;;;;;;;11.57;100.00;155430.38;4909810;29;20075;-76
2022/06/23 03:16:20;;;;;;;15.38;9.05;;;;;;;11.60;100.00;155439.34;4916799;29;20074;-77
2022/06/23 03:19:14;;;;;;;15.98;9.02;;;;;;;11.61;100.00;155441.91;4928841;29;20035;-76
2022/06/23 03:21:53;;;;;;;17.17;9.55;;;;;;;11.60;100.00;155438.03;4902894;29;20131;-77
2022/06/23 03:24:50;;;;;;;12.25;8.88;;;;;;;11.62;100.00;155443.16;4927187;29;20141;-75
2022/06/23 03:27:27;;;;;;;13.30;9.80;;;;;;;11.64;100.00;155449.63;4906337;29;20036;-77
2022/06/23 03:29:52;;;;;;;16.33;10.55;;;;;;;11.73;100.00;155471.41;4920878;29;20105;-75
2022/06/23 03:32:39;;;;;;;20.98;12.35;;;;;;;11.82;100.00;155493.25;4912623;29;20107;-77
2022/06/23 03:35:23;;;;;;;18.73;11.55;;;;;;;11.88;100.00;155508.66;4936770;29;20039;-76
2022/06/23 03:38:12;;;;;;;14.45;10.68;;;;;;;11.88;100.00;155508.66;4917973;29;20040;-77
2022/06/23 03:43:42;;;;;;;19.85;12.15;;;;;;;11.95;100.00;155525.41;4927163;29;20040;-76
2022/06/23 03:46:24;;;;;;;16.42;11.20;;;;;;;11.95;100.00;155526.69;4940450;29;20806;-77
2022/06/23 03:48:54;;;;;;;13.48;10.55;;;;;;;11.96;100.00;155527.97;4940380;29;20047;-77
2022/06/23 03:51:32;;;;;;;17.45;10.48;;;;;;;12.02;100.00;155543.41;4903101;29;20058;-76
2022/06/23 03:54:06;;;;;;;13.18;10.40;;;;;;;12.03;100.00;155547.22;4918763;29;20138;-76
2022/06/23 03:56:49;;;;;;;15.15;10.18;;;;;;;12.08;100.00;155560.06;4922862;29;20039;-77
2022/06/23 03:59:44;;;;;;;15.90;9.68;;;;;;;12.10;100.00;155562.66;4912876;29;20035;-77
2022/06/23 04:02:19;;;;;;;14.82;9.68;;;;;;;12.17;100.00;155580.66;4908572;29;20517;-77
2022/06/23 04:04:54;;;;;;;12.35;9.77;;;;;;;12.21;100.00;155590.91;4944256;28;20047;-77
2022/06/23 04:07:29;;;;;;;13.32;10.75;;;;;;;12.42;100.00;155644.84;4912732;29;20039;-76
2022/06/23 04:10:11;;;;;;;18.52;10.00;;;;;;;12.45;100.00;155652.56;4916359;29;20043;-77
2022/06/23 04:12:45;;;;;;;14.43;9.95;;;;;;;12.52;100.00;155669.25;4942873;29;20044;-76
2022/06/23 04:15:17;;;;;;;12.55;9.40;;;;;;;12.56;100.00;155679.50;4905703;29;20131;-76
2022/06/23 04:17:55;;;;;;;15.23;9.20;;;;;;;12.64;100.00;155698.81;4920848;29;20035;-75
2022/06/23 04:20:38;;;;;;;16.83;9.05;;;;;;;12.82;100.00;155745.03;4937579;29;20048;-76
2022/06/23 04:23:17;;;;;;;18.30;9.25;;;;;;;12.87;100.00;155755.34;4929264;29;20047;-73
2022/06/23 04:25:56;;;;;;;13.38;9.10;;;;;;;13.02;100.00;155793.88;4934581;29;20035;-74
2022/06/23 04:29:00;;;;;;;15.30;9.10;;;;;;;13.22;100.00;155843.97;4931707;29;20043;-76
2022/06/23 04:31:29;;;;;;;13.73;8.98;;;;;;;13.32;100.00;155868.47;4802493;29;20050;-73
2022/06/23 04:33:56;;;;;;;11.43;8.25;;;;;;;13.44;100.00;155900.56;4892247;29;20058;-73
2022/06/23 04:36:29;;;;;;;12.40;8.05;;;;;;;13.38;100.00;155885.16;4924502;29;20042;-77
2022/06/23 04:39:03;;;;;;;15.65;9.77;;;;;;;13.47;100.00;155907.00;4919584;29;20050;-76
2022/06/23 04:41:36;;;;;;;13.48;8.52;;;;;;;13.77;100.00;155981.56;4930025;29;20044;-75
2022/06/23 04:44:11;;;;;;;12.52;8.48;;;;;;;13.94;100.00;156024.00;4916206;29;20047;-74
2022/06/23 04:46:42;;;;;;;12.65;8.02;;;;;;;14.08;100.00;156059.97;4932754;29;21076;-75
2022/06/23 04:49:23;;;;;;;17.17;8.38;;;;;;;14.10;100.00;156065.09;4904485;29;20623;-76
2022/06/23 04:51:55;;;;;;;10.90;7.82;;;;;;;14.22;100.00;156094.66;4921508;29;20046;-75
2022/06/23 04:54:36;;;;;;;9.90;7.45;;;;;;;14.32;100.00;156120.41;4940619;29;20035;-77
2022/06/23 04:57:08;;;;;;;13.27;7.38;;;;;;;14.40;100.00;156140.97;4923023;29;20024;-77
2022/06/23 05:00:03;;;;;;;12.38;7.70;;;;;;;14.50;100.00;156164.13;4934317;29;20035;-76
2022/06/23 05:02:40;;;;;;;11.13;7.85;;;;;;;14.64;100.00;156198.94;4907810;29;20062;-75
2022/06/23 05:05:19;;;;;;;11.25;7.13;;;;;;;14.68;100.00;156210.47;4903794;28;20063;-74
2022/06/23 05:07:53;;;;;;;10.32;7.15;;;;;;;14.78;100.00;156234.91;4909772;29;20182;-74
2022/06/23 05:10:25;;;;;;;15.27;7.72;;;;;;;14.91;100.00;156268.34;4922651;29;20051;-74
2022/06/23 05:13:20;;;;;;;12.30;7.05;;;;;;;14.94;100.00;156276.09;4935395;28;20047;-75
2022/06/23 05:16:02;;;;;;;11.73;6.78;;;;;;;15.03;100.00;156297.97;4930692;29;20058;-77
2022/06/23 05:18:32;;;;;;;13.53;7.17;;;;;;;15.10;100.00;156315.94;4925896;29;20036;-76
2022/06/23 05:21:04;;;;;;;14.15;7.25;;;;;;;15.08;100.00;156310.81;4917820;29;20044;-76
2022/06/23 05:23:43;;;;;;;11.90;7.05;;;;;;;15.08;100.00;156310.81;4928067;29;20493;-76
2022/06/23 05:26:26;;;;;;;11.57;7.25;;;;;;;15.13;100.00;156323.69;4923242;29;20086;-73
2022/06/23 05:29:05;;;;;;;11.95;6.65;;;;;;;15.29;100.00;156363.53;4915254;29;20043;-74
2022/06/23 05:31:37;;;;;;;12.65;6.57;;;;;;;15.37;100.00;156384.16;4939586;29;20031;-74
2022/06/23 05:34:15;;;;;;;9.25;6.97;;;;;;;15.46;100.00;156404.72;4922439;29;20046;-73
2022/06/23 05:37:06;;;;;;;14.73;6.72;;;;;;;15.57;100.00;156434.31;4939109;29;20043;-76
2022/06/23 05:40:13;;;;;;;10.23;6.88;;;;;;;15.66;100.00;156456.22;4940203;29;20040;-73
2022/06/23 05:42:45;;;;;;;9.23;5.85;;;;;;;15.73;100.00;156472.97;4876071;29;20727;-78
2022/06/23 05:45:20;;;;;;;9.30;6.15;;;;;;;15.93;100.00;156524.44;4879401;29;20381;-77
2022/06/23 05:47:46;;;;;;;9.77;5.93;;;;;;;16.12;100.00;156572.13;4898210;29;20043;-77
2022/06/23 05:50:18;;;;;;;9.13;5.78;;;;;;;16.11;100.00;156569.53;4924807;29;20829;-76
2022/06/23 05:52:53;;;;;;;8.32;5.80;;;;;;;16.15;100.00;156579.81;4917783;29;20537;-73
2022/06/23 05:55:33;;;;;;;10.82;5.72;;;;;;;16.35;100.00;156630.03;4925966;29;20735;-76
2022/06/23 05:58:24;;;;;;;9.02;5.85;;;;;;;16.40;100.00;156641.59;4904447;29;20048;-76
2022/06/23 06:01:13;;;;;;;8.80;5.55;;;;;;;16.52;100.00;156671.25;4905630;29;20043;-76
2022/06/23 06:03:47;;;;;;;9.90;5.05;;;;;;;16.71;100.00;156718.91;4941515;29;20042;-76
2022/06/23 06:06:13;;;;;;;15.15;5.85;;;;;;;16.91;100.00;156769.13;4902650;29;20054;-74
2022/06/23 06:11:49;;;;;;;7.82;5.03;;;;;;;17.04;100.00;156801.34;4940484;29;20051;-77
2022/06/23 06:14:18;;;;;;;11.73;4.97;;;;;;;17.10;100.00;156816.78;4926336;29;20051;-75
2022/06/23 06:16:43;;;;;;;9.82;4.68;;;;;;;17.23;100.00;156850.28;4938564;29;20133;-76
2022/06/23 06:19:17;;;;;;;10.63;5.20;;;;;;;17.37;100.00;156885.09;4928155;29;20054;-74
2022/06/23 06:21:46;;;;;;;6.93;5.03;;;;;;;17.44;100.00;156903.13;4947093;29;20418;-76
2022/06/23 06:24:17;;;;;;;7.97;4.57;;;;;;;17.55;100.00;156928.88;4927770;29;20038;-77
2022/06/23 06:26:47;;;;;;;11.32;4.70;;;;;;;17.69;100.00;156966.25;4930057;29;20416;-76
2022/06/23 06:29:16;;;;;;;8.38;3.78;;;;;;;17.82;100.00;156998.47;4909081;29;20075;-77
2022/06/23 06:31:47;;;;;;;9.32;3.92;;;;;;;17.96;100.00;157033.28;4928465;29;20046;-76
2022/06/23 06:34:23;;;;;;;7.95;4.22;;;;;;;18.01;100.00;157046.19;4922030;29;20052;-77
2022/06/23 06:36:53;;;;;;;10.63;4.03;;;;;;;18.09;100.00;157066.78;4929424;29;20036;-78
2022/06/23 06:39:33;;;;;;;6.43;3.55;;;;;;;18.31;100.00;157120.94;4943007;29;20132;-76
2022/06/23 06:42:07;;;;;;;6.90;3.67;;;;;;;18.44;98.21;157153.13;4922903;29;20387;-75
2022/06/23 06:44:36;;;;;;;9.68;4.68;;;;;;;18.48;100.00;157164.75;4926041;29;20051;-76
2022/06/23 06:47:02;;;;;;;11.15;4.03;;;;;;;18.53;98.51;157175.06;4940551;29;20035;-75
2022/06/23 06:49:29;;;;;;;7.88;3.55;;;;;;;18.66;99.12;157208.56;4940924;29;20055;-74
2022/06/23 06:51:57;;;;;;;10.57;4.30;;;;;;;18.83;97.38;157251.16;4906430;29;20576;-74
2022/06/23 06:54:48;;;;;;;5.47;3.35;;;;;;;18.98;97.68;157289.84;4923503;29;20039;-75
2022/06/23 06:57:26;;;;;;;6.53;3.30;;;;;;;19.11;95.53;157320.81;4939826;29;20035;-76
2022/06/23 07:00:25;;;;;;;10.05;3.42;;;;;;;19.29;96.42;157365.91;4917055;29;20094;-76
2022/06/23 07:03:02;;;;;;;9.98;3.58;;;;;;;19.47;94.38;157411.06;4921912;29;20047;-74
2022/06/23 07:05:56;;;;;;;9.55;3.40;;;;;;;19.59;93.85;157443.31;4920342;29;20058;-77
2022/06/23 07:08:37;;;;;;;4.60;2.72;;;;;;;19.79;93.42;157493.66;4947436;29;20122;-76
2022/06/23 07:11:16;;;;;;;9.52;3.22;;;;;;;20.02;89.62;157551.72;4946865;29;20043;-72
2022/06/23 07:13:56;;;;;;;7.00;2.92;;;;;;;20.03;90.81;157554.28;4940242;29;20348;-74
2022/06/23 07:16:31;;;;;;;8.73;3.28;;;;;;;20.18;90.82;157591.72;4933457;29;20056;-74
2022/06/23 07:19:08;;;;;;;7.30;3.40;;;;;;;20.18;88.25;157591.72;4942067;29;20035;-76
2022/06/23 07:22:01;;;;;;;7.15;3.05;;;;;;;20.25;89.29;157608.50;4935410;29;20071;-73
2022/06/23 07:25:08;;;;;;;10.23;3.47;;;;;;;20.45;88.24;157657.50;4897026;29;20477;-74
2022/06/23 07:27:50;;;;;;;7.00;3.10;;;;;;;20.54;87.47;157680.75;4924072;29;20109;-77
2022/06/23 07:30:20;;;;;;;8.02;3.63;;;;;;;20.55;91.24;157683.31;4921276;29;20078;-77
2022/06/23 07:32:54;;;;;;;8.00;2.92;;;;;;;20.77;87.41;157738.84;4939993;28;20121;-74
2022/06/23 07:35:36;;;;;;;5.90;3.25;;;;;;;20.81;85.12;157749.19;4935837;29;20413;-77
2022/06/23 07:38:15;;;;;;;6.13;3.17;;;;;;;20.99;88.62;157794.38;4943517;29;20133;-73
2022/06/23 07:41:08;;;;;;;8.98;3.10;;;;;;;21.04;85.40;157807.28;4927591;29;20043;-76
2022/06/23 07:43:46;;;;;;;8.20;2.92;;;;;;;21.17;84.40;157840.84;4931997;29;20039;-75
2022/06/23 07:46:13;;;;;;;9.20;3.38;;;;;;;21.38;82.28;157892.50;4906284;29;20057;-75
2022/06/23 07:48:39;;;;;;;5.65;2.80;;;;;;;21.51;82.98;157924.78;4924642;29;20115;-75
2022/06/23 07:51:09;;;;;;;7.78;3.00;;;;;;;21.61;83.22;157949.34;4924478;29;20039;-72
2022/06/23 07:53:39;;;;;;;5.05;3.13;;;;;;;21.65;81.86;157959.66;4945339;28;20040;-75
2022/06/23 07:56:08;;;;;;;10.27;3.22;;;;;;;21.71;83.18;157976.44;4921225;29;20043;-73
2022/06/23 07:58:36;;;;;;;6.38;2.67;;;;;;;21.80;83.25;157997.13;4940095;29;20040;-76
2022/06/23 08:01:17;;;;;;;7.85;2.70;;;;;;;21.82;81.30;158002.28;4915852;29;20039;-75
2022/06/23 08:04:04;;;;;;;6.43;2.50;;;;;;;21.83;82.88;158004.84;4928879;29;20036;-76
2022/06/23 08:06:33;;;;;;;5.47;2.80;;;;;;;21.97;79.74;158042.28;4934184;29;20056;-74
2022/06/23 08:09:05;;;;;;;6.35;2.90;;;;;;;22.07;79.01;158066.81;4930840;29;20103;-75
2022/06/23 08:14:32;;;;;;;8.60;3.00;;;;;;;22.23;78.74;158105.59;4933597;29;20047;-74
2022/06/23 08:17:00;;;;;;;7.53;3.30;;;;;;;22.25;79.40;158112.09;4906519;29;20038;-75
2022/06/23 08:20:02;;;;;;;7.63;3.65;;;;;;;22.38;76.43;158144.41;4935413;29;20433;-77
2022/06/23 08:22:33;;;;;;;8.25;2.85;;;;;;;22.46;76.09;158163.78;4841994;29;20050;-76
2022/06/23 08:25:05;;;;;;;7.37;3.17;;;;;;;22.53;77.37;158181.88;4872418;29;20048;-76
2022/06/23 08:27:31;;;;;;;6.78;3.03;;;;;;;22.64;75.01;158210.28;4933903;29;20047;-75
2022/06/23 08:30:06;;;;;;;10.35;3.78;;;;;;;22.66;74.85;158215.44;4926881;29;20035;-74
2022/06/23 08:32:33;;;;;;;6.85;2.97;;;;;;;22.84;78.45;158259.34;4939573;29;20039;-77
2022/06/23 08:35:07;;;;;;;8.48;3.20;;;;;;;22.99;72.77;158296.81;4915068;29;20044;-75
2022/06/23 08:37:39;;;;;;;4.88;3.10;;;;;;;22.95;72.55;158287.78;4942593;29;20032;-74
2022/06/23 08:40:22;;;;;;;5.40;2.83;;;;;;;23.06;75.20;158316.25;4928700;29;20035;-77
2022/06/23 08:43:09;;;;;;;6.93;3.08;;;;;;;23.18;73.10;158345.97;4939865;29;20046;-74
2022/06/23 08:45:37;;;;;;;6.78;3.10;;;;;;;23.28;71.49;158370.50;4939053;29;20070;-75
2022/06/23 08:48:23;;;;;;;5.65;3.00;;;;;;;23.50;71.07;158427.38;4904126;29;20050;-74
2022/06/23 08:50:54;;;;;;;5.90;2.90;;;;;;;23.68;70.52;158472.63;4923678;29;20048;-74
2022/06/23 08:53:50;;;;;;;5.70;3.30;;;;;;;23.70;71.14;158477.78;4907034;29;20082;-74
2022/06/23 08:56:24;;;;;;;5.68;3.00;;;;;;;23.78;73.38;158497.19;4922015;29;20043;-77
2022/06/23 08:58:56;;;;;;;7.60;2.60;;;;;;;23.92;70.02;158530.84;4943761;29;20039;-77
2022/06/23 09:01:34;;;;;;;7.45;2.90;;;;;;;23.94;66.78;158536.00;4937295;29;20087;-72
2022/06/23 09:04:22;;;;;;;4.32;2.60;;;;;;;24.10;67.57;158577.38;4937757;28;20050;-77
2022/06/23 09:06:59;;;;;;;4.95;2.88;;;;;;;24.24;65.97;158612.28;4908218;29;20040;-77
2022/06/23 09:10:18;;;;;;;6.65;2.72;;;;;;;24.45;64.37;158665.31;4928881;29;20046;-74
2022/06/23 09:12:59;;;;;;;9.77;3.03;;;;;;;24.52;62.41;158683.44;4908573;29;20056;-76
2022/06/23 09:15:59;;;;;;;5.32;2.70;;;;;;;24.60;62.02;158702.81;4904746;29;20074;-76
2022/06/23 09:18:35;;;;;;;6.43;2.38;;;;;;;24.57;61.70;158695.09;4927163;29;20044;-74
2022/06/23 09:21:27;;;;;;;4.82;2.20;;;;;;;24.66;61.55;158718.38;4938578;29;20134;-76
2022/06/23 09:23:53;;;;;;;;;;;;;;;24.76;60.65;158744.22;4916015;29;20390;-75
2022/06/23 09:26:33;;;;;;;8.27;2.60;;;;;;;24.81;62.91;158755.88;4924461;29;19943;-76
2022/06/23 09:29:13;;;;;;;5.75;2.67;;;;;;;25.13;63.89;158836.03;4921536;29;20052;-77
2022/06/23 09:31:56;;;;;;;5.50;2.35;;;;;;;25.35;59.39;158893.00;4937493;29;20043;-76
2022/06/23 09:34:34;;;;;;;5.80;2.13;;;;;;;25.59;59.40;158952.53;4918213;29;20059;-77
2022/06/23 09:37:25;;;;;;;5.90;2.47;;;;;;;25.54;60.36;158940.91;4905331;29;20043;-76
2022/06/23 09:39:57;;;;;;;4.68;2.28;;;;;;;25.44;53.12;158915.00;4935535;29;20048;-77
2022/06/23 09:42:57;;;;;;;3.95;2.00;;;;;;;25.60;53.56;158956.41;4938706;29;20509;-76
2022/06/23 09:45:56;;;;;;;7.68;2.50;;;;;;;25.81;57.84;159009.44;4937283;29;20067;-76
2022/06/23 09:48:25;;;;;;;5.47;2.40;;;;;;;26.03;55.49;159065.16;4943777;29;20040;-78
2022/06/23 09:51:09;;;;;;;6.90;2.28;;;;;;;25.99;54.41;159053.47;4900759;29;20066;-76
2022/06/23 09:54:05;;;;;;;4.65;1.92;;;;;;;26.00;53.83;159057.38;4930862;29;20036;-76
2022/06/23 09:56:37;;;;;;;5.32;2.08;;;;;;;26.06;52.53;159071.59;4922527;29;20040;-76
2022/06/23 09:59:24;;;;;;;5.43;2.10;;;;;;;26.19;49.50;159105.25;4937177;29;20067;-76
2022/06/23 10:02:05;;;;;;;4.53;1.80;;;;;;;26.43;52.67;159164.81;4919761;29;20052;-76
2022/06/23 10:04:45;;;;;;;3.20;1.90;;;;;;;26.51;48.26;159185.50;4938635;29;20040;-75
2022/06/23 10:07:10;;;;;;;4.80;1.77;;;;;;;26.53;50.21;159189.38;4933697;29;20715;-76
2022/06/23 10:10:11;;;;;;;4.53;2.13;;;;;;;26.65;50.87;159219.19;4930847;29;20046;-77
2022/06/23 10:13:05;;;;;;;3.63;2.10;;;;;;;26.71;49.68;159234.72;4892267;29;20052;-76
2022/06/23 10:16:08;;;;;;;4.68;2.30;;;;;;;26.64;50.11;159217.91;4936433;29;20036;-76
2022/06/23 10:18:50;;;;;;;5.63;1.80;;;;;;;26.94;47.85;159293.00;4943166;29;20110;-76
2022/06/23 10:21:23;;;;;;;;;;;;;;;26.81;45.30;159260.63;4922373;29;21765;-77
2022/06/23 10:24:16;;;;;;;3.17;1.48;;;;;;;26.91;44.62;159285.22;4919306;29;20034;-76
2022/06/23 10:27:08;;;;;;;3.55;1.70;;;;;;;27.15;44.38;159346.06;4927578;29;20075;-74
2022/06/23 10:29:52;;;;;;;8.07;2.78;;;;;;;27.28;45.47;159378.50;4933489;29;20052;-74
2022/06/23 10:32:44;;;;;;;5.05;2.00;;;;;;;27.46;43.12;159425.06;4928412;29;20036;-74
2022/06/23 10:35:38;;;;;;;6.97;1.45;;;;;;;27.42;44.49;159414.72;4928179;29;20061;-76
2022/06/23 10:38:55;;;;;;;6.45;1.80;;;;;;;27.53;42.18;159441.91;4916223;29;20040;-76
2022/06/23 10:41:30;;;;;;;4.82;1.83;;;;;;;27.74;44.49;159495.00;4946938;29;20130;-76
2022/06/23 10:44:08;;;;;;;2.83;1.42;;;;;;;27.94;42.72;159545.59;4913624;29;20044;-77
2022/06/23 10:46:42;;;;;;;3.65;1.90;;;;;;;27.99;44.51;159558.56;4933240;29;20055;-77
2022/06/23 10:49:34;;;;;;;4.57;1.85;;;;;;;28.14;43.54;159596.06;4898640;29;20560;-76
2022/06/23 10:52:03;;;;;;;4.03;1.80;;;;;;;28.22;43.01;159615.50;4895950;29;20067;-75
2022/06/23 10:54:47;;;;;;;2.55;1.90;;;;;;;28.21;41.57;159614.22;4932551;28;20079;-77
2022/06/23 10:57:45;;;;;;;3.40;2.00;;;;;;;28.14;42.13;159597.41;4941912;29;20068;-76
2022/06/23 11:00:17;;;;;;;3.83;1.70;;;;;;;28.14;41.76;159597.41;4885544;29;20047;-76
2022/06/23 11:03:02;;;;;;;;;;;;;;;28.44;42.17;159671.19;4928901;29;20130;-79
2022/06/23 11:06:02;;;;;;;4.63;1.90;;;;;;;28.50;42.05;159688.06;4937675;28;19923;-76
2022/06/23 11:08:34;;;;;;;5.72;2.20;;;;;;;28.28;41.81;159632.34;4922468;29;20047;-77
2022/06/23 11:11:13;;;;;;;3.00;1.80;;;;;;;28.31;41.41;159638.81;4918663;29;20090;-76
2022/06/23 11:14:01;;;;;;;3.50;1.83;;;;;;;28.38;42.26;159656.94;4944715;29;20071;-76
2022/06/23 11:16:38;;;;;;;4.45;1.50;;;;;;;28.46;41.16;159677.72;4928027;29;20047;-76
2022/06/23 11:19:33;;;;;;;3.30;1.55;;;;;;;28.33;39.79;159645.31;4897961;29;20107;-74
2022/06/23 11:22:03;;;;;;;4.05;1.80;;;;;;;28.19;40.55;159609.03;4944813;29;20046;-75
2022/06/23 11:24:50;;;;;;;4.50;1.77;;;;;;;28.48;40.49;159681.56;4925245;29;20040;-76
2022/06/23 11:27:16;;;;;;;3.17;1.73;;;;;;;28.55;40.97;159699.75;4924901;29;20123;-77
2022/06/23 11:29:58;;;;;;;2.85;1.50;;;;;;;28.63;41.27;159720.50;4931676;29;20053;-77
2022/06/23 11:33:01;;;;;;;4.43;1.50;;;;;;;28.82;39.93;159768.44;4922984;29;20120;-73
2022/06/23 11:35:50;;;;;;;4.63;1.80;;;;;;;28.93;39.27;159795.63;4943852;29;20127;-76
2022/06/23 11:38:52;;;;;;;5.15;1.90;;;;;;;29.02;39.62;159817.66;4931684;29;20040;-76
2022/06/23 11:41:36;;;;;;;5.60;2.05;;;;;;;29.16;38.87;159852.69;4934849;29;20036;-75
2022/06/23 11:44:13;;;;;;;3.70;1.50;;;;;;;29.24;40.19;159873.44;4928935;29;20040;-76
2022/06/23 11:47:00;;;;;;;2.72;1.60;;;;;;;29.17;40.16;159855.28;4940575;29;20043;-75
2022/06/23 11:49:32;;;;;;;6.00;1.80;;;;;;;29.38;41.02;159908.41;4922175;29;20600;-75
2022/06/23 11:52:30;;;;;;;5.30;1.80;;;;;;;29.37;40.70;159907.13;4904314;29;20166;-75
2022/06/23 11:55:44;;;;;;;3.30;1.70;;;;;;;29.45;40.64;159926.56;4931783;29;20043;-77
2022/06/23 11:58:48;;;;;;;2.65;1.55;;;;;;;29.66;39.80;159979.69;4914836;29;20051;-78
2022/06/23 12:01:20;;;;;;;6.18;1.67;;;;;;;29.78;39.96;160010.88;4904727;29;20630;-77
2022/06/23 12:04:04;;;;;;;5.35;1.67;;;;;;;29.73;39.51;159997.91;4940255;29;20040;-76
2022/06/23 12:06:51;;;;;;;3.63;1.50;;;;;;;29.87;39.84;160034.16;4935957;29;20047;-74
2022/06/23 12:09:30;;;;;;;5.78;1.83;;;;;;;29.69;39.02;159987.50;4919886;29;20036;-77
2022/06/23 12:11:57;;;;;;;4.68;1.88;;;;;;;29.65;39.42;159977.13;4944353;29;20227;-77
2022/06/23 12:14:25;;;;;;;2.38;1.50;;;;;;;29.87;39.80;160032.88;4906615;29;20039;-74
2022/06/23 12:17:18;;;;;;;3.38;1.90;;;;;;;29.84;39.01;160026.41;4933868;29;20497;-76
2022/06/23 12:19:56;;;;;;;2.35;1.60;;;;;;;30.07;40.16;160083.47;4928133;29;20051;-77
2022/06/23 12:22:31;;;;;;;2.95;1.77;;;;;;;30.06;38.21;160082.16;4939441;29;20043;-77
2022/06/23 12:25:24;;;;;;;3.72;1.70;;;;;;;30.07;38.58;160084.75;4900882;29;20058;-77
2022/06/23 12:28:08;;;;;;;5.20;1.83;;;;;;;30.40;39.49;160166.44;4922376;29;20047;-77